Flight Track Log - Related Links

Times and Time Zones

All times are in EDT time to prevent confusion due to time zone crossing. See the N777NC flight status page for this flight to view local times or setup timezone preferences in your user account.

Time Position Orientation Groundspeed Altitude Reporting Facility
EDT Latitude Longitude Course Direction KTS MPH feet Rate Location/Type
Mon 02:28:19 PM 34.7133 -92.2519 79° East 171 197 1,000  Level Memphis Center
Mon 02:29:07 PM 34.6756 -92.2664 197° South 211 243 2,200 1,596 Climbing Memphis Center
Mon 02:30:08 PM 34.6664 -92.1978 99° East 246 283 3,900 1,686 Climbing Memphis Center
Mon 02:31:00 PM 34.7345 -91.7596 78° East  Level FlightAware Approximate
Mon 02:31:08 PM 34.6925 -92.1100 70° East 288 331 5,600  Level Memphis Center
Mon 02:32:00 PM 34.7551 -91.6366 78° East  Level FlightAware Approximate
Mon 02:32:14 PM 34.7044 -92.0142 81° East 307 353 7,900  Level Memphis Center
Mon 02:33:00 PM 34.7755 -91.5135 79° East  Level FlightAware Approximate
Mon 02:33:14 PM 34.7200 -91.9211 78° East 296 341 10,200  Level Memphis Center
Mon 02:34:14 PM 34.7361 -91.8128 80° East 296 341 11,800 1,450 Climbing Memphis Center
Mon 02:35:14 PM 34.7519 -91.6842 81° East 331 381 13,100 1,300 Climbing Memphis Center
Mon 02:36:14 PM 34.7656 -91.5781 81° East 348 400 14,400 1,600 Climbing Memphis Center
Mon 02:37:14 PM 34.7461 -91.4514 101° East 362 417 16,300 1,650 Climbing Memphis Center
Mon 02:38:14 PM 34.7219 -91.3275 103° East 375 432 17,700 1,400 Climbing Memphis Center
Mon 02:39:14 PM 34.6958 -91.1931 103° East 391 450 19,100 1,350 Climbing Memphis Center
Mon 02:40:14 PM 34.6944 -91.0594 91° East 404 465 20,400 1,450 Climbing Memphis Center
Mon 02:41:14 PM 34.7472 -90.9383 62° Northeast 398 458 22,000 1,350 Climbing Memphis Center
Mon 02:42:14 PM 34.8019 -90.8122 62° Northeast 405 466 23,100 1,150 Climbing Memphis Center
Mon 02:43:14 PM 34.8400 -90.6633 73° East 411 473 24,300 1,150 Climbing Memphis Center
Mon 02:44:14 PM 34.8800 -90.5267 70° East 419 482 25,400 1,000 Climbing Memphis Center
Mon 02:45:14 PM 34.9133 -90.3850 74° East 433 498 26,300 933 Climbing Memphis Center
Mon 02:47:14 PM 34.9883 -90.0986 72° East 439 505 28,200 833 Climbing Memphis Center
Mon 02:48:14 PM 35.0233 -89.9489 74° East 444 511 28,800 400 Climbing Memphis Center
Mon 02:49:14 PM 35.0103 -89.8094 96° East 444 511 29,000 100 Climbing Memphis Center
Mon 02:50:14 PM 34.9803 -89.6475 103° East 470 541 29,000  Level Memphis Center
Mon 02:51:14 PM 34.9394 -89.4856 107° East 464 534 29,000  Level Memphis Center
Mon 02:52:14 PM 34.9050 -89.3317 105° East 464 534 29,000  Level Memphis Center
Mon 02:53:14 PM 34.8703 -89.1853 106° East 458 527 29,000  Level Memphis Center
Mon 02:54:14 PM 34.8439 -89.0364 102° East 458 527 29,000  Level Memphis Center
Mon 02:55:14 PM 34.8233 -88.8847 99° East 452 520 29,000  Level Memphis Center
Mon 02:56:14 PM 34.8006 -88.7308 100° East 452 520 29,000  Level Memphis Center
Mon 02:57:14 PM 34.7858 -88.5769 97° East 452 520 29,000  Level Memphis Center
Mon 02:58:14 PM 34.7692 -88.4281 98° East 452 520 29,000  Level Memphis Center
Mon 02:59:14 PM 34.7539 -88.2717 97° East 447 514 29,000  Level Memphis Center
Mon 03:00:14 PM 34.7411 -88.1256 96° East 468 539 29,000  Level Memphis Center
Mon 03:01:14 PM 34.7256 -87.9717 97° East 473 544 29,000  Level Memphis Center
Mon 03:02:14 PM 34.7142 -87.8181 95° East 467 537 29,000  Level Memphis Center
Mon 03:03:14 PM 34.6983 -87.6619 97° East 462 532 29,000  Level Memphis Center
Mon 03:04:14 PM 34.6825 -87.5108 97° East 455 524 29,000  Level Memphis Center
Mon 03:05:14 PM 34.6686 -87.3572 96° East 446 513 29,000  Level Memphis Center
Mon 03:07:21 PM 34.5969 -87.0317 105° East 467 537 29,000  Level Atlanta Center
Mon 03:08:21 PM 34.5608 -86.8839 106° East 468 539 29,000 -1,350 Level Atlanta Center
Mon 03:09:21 PM 34.5203 -86.7339 108° East 468 539 26,300 -2,300 Descending Atlanta Center
Mon 03:10:21 PM 34.4861 -86.5792 105° East 468 539 24,400 -1,150 Descending Atlanta Center
Mon 03:11:21 PM 34.4494 -86.4319 107° East 463 533 24,000 -200 Descending Atlanta Center
Mon 03:12:21 PM 34.4061 -86.2844 110° East 463 533 24,000  Level Atlanta Center
Mon 03:13:21 PM 34.3669 -86.1400 108° East 463 533 24,000  Level Atlanta Center
Mon 03:14:21 PM 34.3275 -85.9958 108° East 458 527 24,000  Level Atlanta Center
Mon 03:15:21 PM 34.2881 -85.8492 108° East 458 527 24,000 -200 Level Atlanta Center
Mon 03:16:21 PM 34.2608 -85.7053 103° East 444 511 23,600 -1,650 Descending Atlanta Center
Mon 03:17:21 PM 34.2525 -85.5567 94° East 438 504 20,700 -2,350 Descending Atlanta Center
Mon 03:18:21 PM 34.2228 -85.4081 104° East 432 497 18,900 -1,000 Descending Atlanta Center
Mon 03:19:21 PM 34.1908 -85.2744 106° East 414 476 18,700 -1,300 Descending Atlanta Center
Mon 03:20:21 PM 34.1608 -85.1408 105° East 409 471 16,300 -2,050 Descending Atlanta Center
Mon 03:21:21 PM 34.1242 -85.0225 110° East 395 455 14,600 -1,400 Descending Atlanta Center
Mon 03:22:21 PM 34.0456 -84.9289 135° Southeast 382 440 13,500 -1,450 Descending Atlanta Center
Mon 03:23:21 PM 33.9647 -84.8503 141° Southeast 371 427 11,700 -1,200 Descending Atlanta Center
Mon 03:24:21 PM 33.8839 -84.7719 141° Southeast 376 433 11,100 -533 Descending Atlanta Center
Mon 03:24:51 PM 33.8500 -84.7333 137° Southeast 370 426 10,900 -67 Descending Atlanta TRACON
Mon 03:25:51 PM 33.7667 -84.6333 135° Southeast 375 432 11,000 50 Climbing Atlanta TRACON
Mon 03:26:51 PM 33.7333 -84.5333 112° Southeast 319 367 11,000 -350 Level Atlanta TRACON
Mon 03:27:51 PM 33.7500 -84.4500 76° East 268 308 10,300 -1,200 Descending Atlanta TRACON
Mon 03:28:51 PM 33.7500 -84.3667 90° East 266 306 8,600 -1,750 Descending Atlanta TRACON
Mon 03:29:51 PM 33.7500 -84.2833 90° East 237 273 6,800 -1,900 Descending Atlanta TRACON
Mon 03:30:51 PM 33.7500 -84.2000 90° East 238 274 4,800 -1,400 Descending Atlanta TRACON
Mon 03:31:51 PM 33.7167 -84.1500 129° Southeast 208 239 4,000 -500 Descending Atlanta TRACON
Mon 03:32:51 PM 33.6667 -84.1667 196° South 188 216 3,800 -200 Descending Atlanta TRACON

Login

Don't have an account? Register now (free) for customized features, flight alerts, and more!